createdAt,value
2017-05-25T00:00:15.356Z,87.96
2017-05-25T00:00:56.240Z,87.77
2017-05-25T00:01:37.200Z,88.06
2017-05-25T00:02:18.057Z,88.44
2017-05-25T00:02:58.984Z,88.73
2017-05-25T00:03:40.449Z,88.25
2017-05-25T00:04:21.339Z,88.63
2017-05-25T00:05:02.227Z,88.34
2017-05-25T00:05:43.122Z,88.82
2017-05-25T00:06:24.014Z,88.44
2017-05-25T00:07:04.932Z,89.39
2017-05-25T00:07:45.819Z,89.01
2017-05-25T00:08:26.733Z,88.92
2017-05-25T00:09:07.623Z,89.3
2017-05-25T00:09:48.503Z,89.3
2017-05-25T00:11:21.744Z,89.2
2017-05-25T00:12:02.633Z,89.39
2017-05-25T00:12:43.507Z,89.11
2017-05-25T00:13:24.402Z,89.2
2017-05-25T00:14:05.301Z,89.2
2017-05-25T00:14:46.214Z,89.49
2017-05-25T00:15:27.117Z,89.3
2017-05-25T00:16:08.007Z,89.78
2017-05-25T00:16:48.888Z,89.54
2017-05-25T00:17:29.787Z,89.59
2017-05-25T00:18:10.680Z,89.87
2017-05-25T00:19:43.923Z,89.49
2017-05-25T00:20:24.807Z,89.68
2017-05-25T00:21:05.720Z,89.59
2017-05-25T00:21:46.611Z,89.87
2017-05-25T00:22:27.477Z,89.87
2017-05-25T00:23:08.360Z,89.78
2017-05-25T00:23:49.240Z,89.78
2017-05-25T00:24:30.174Z,89.59
2017-05-25T00:25:11.033Z,89.73
2017-05-25T00:25:51.911Z,89.92
2017-05-25T00:26:32.840Z,90.11
2017-05-25T00:27:13.716Z,89.83
2017-05-25T00:27:54.626Z,89.92
2017-05-25T00:28:35.516Z,90.54
2017-05-25T00:29:16.406Z,90.5
2017-05-25T00:31:10.074Z,90.4
2017-05-25T00:31:50.978Z,90.21
2017-05-25T00:32:31.861Z,90.4
2017-05-25T00:33:12.745Z,90.31
2017-05-25T00:33:53.651Z,90.4
2017-05-25T00:34:34.532Z,90.02
2017-05-25T00:35:15.395Z,90.69
2017-05-25T00:35:56.315Z,90.21
2017-05-25T00:36:37.268Z,89.92
2017-05-25T00:37:18.160Z,90.31
2017-05-25T00:37:59.037Z,90.11
2017-05-25T00:38:39.930Z,90.78
2017-05-25T00:39:20.823Z,90.78
2017-05-25T00:40:01.706Z,90.78
2017-05-25T00:40:42.600Z,90.59
2017-05-25T00:41:23.499Z,90.78
2017-05-25T00:42:04.383Z,90.88
2017-05-25T00:42:45.300Z,91.45
2017-05-25T00:43:26.181Z,91.36
2017-05-25T00:44:07.060Z,91.16
2017-05-25T00:44:48.005Z,91.26
2017-05-25T00:45:29.583Z,91.07
2017-05-25T00:46:10.476Z,91.07
2017-05-25T00:46:51.385Z,91.45
2017-05-25T00:47:32.262Z,91.45
2017-05-25T00:48:13.157Z,90.88
2017-05-25T00:48:54.046Z,91.45
2017-05-25T00:49:34.940Z,91.26
2017-05-25T00:50:15.828Z,92.02
2017-05-25T00:50:56.722Z,91.45
2017-05-25T00:51:37.598Z,91.83
2017-05-25T00:52:18.469Z,91.55
2017-05-25T00:52:59.363Z,91.93
2017-05-25T00:53:40.265Z,91.93
2017-05-25T00:54:22.077Z,91.36
2017-05-25T00:55:02.962Z,91.64
2017-05-25T00:55:43.851Z,91.74
2017-05-25T00:56:24.732Z,91.83
2017-05-25T00:57:05.616Z,92.21
2017-05-25T00:57:46.503Z,92.02
2017-05-25T00:58:27.434Z,92.12
2017-05-25T00:59:08.316Z,92.97
2017-05-25T00:59:49.218Z,92.88
2017-05-25T01:00:30.109Z,92.5
2017-05-25T01:01:11.039Z,92.69
2017-05-25T01:01:51.906Z,92.97
2017-05-25T01:02:32.784Z,92.5
2017-05-25T01:03:13.671Z,92.88
2017-05-25T01:03:54.574Z,92.6
2017-05-25T01:04:35.451Z,92.97
2017-05-25T01:05:16.341Z,92.69
2017-05-25T01:05:57.252Z,92.97
2017-05-25T01:06:38.133Z,93.26
2017-05-25T01:07:19.017Z,93.07
2017-05-25T01:07:59.910Z,93.07
2017-05-25T01:08:40.791Z,92.97
2017-05-25T01:09:21.707Z,92.97
2017-05-25T01:10:02.610Z,93.17
2017-05-25T01:10:43.493Z,93.26
2017-05-25T01:12:21.869Z,93.17
2017-05-25T01:13:02.746Z,93.46
2017-05-25T01:13:43.631Z,93.07
2017-05-25T01:14:24.535Z,93.07
2017-05-25T01:15:05.410Z,93.7
2017-05-25T01:15:46.317Z,93.51
2017-05-25T01:16:27.212Z,93.7
2017-05-25T01:17:08.086Z,93.07
2017-05-25T01:17:48.978Z,93.74
2017-05-25T01:18:29.868Z,93.55
2017-05-25T01:19:10.761Z,93.7
2017-05-25T01:19:51.654Z,93.36
2017-05-25T01:20:32.544Z,93.51
2017-05-25T01:21:13.436Z,93.55
2017-05-25T01:21:54.310Z,93.46
2017-05-25T01:22:35.187Z,93.31
2017-05-25T01:23:16.074Z,93.79
2017-05-25T01:23:56.968Z,93.31
2017-05-25T01:24:37.842Z,93.79
2017-05-25T01:25:18.729Z,93.79
2017-05-25T01:25:59.626Z,93.7
2017-05-25T01:26:40.554Z,94.56
2017-05-25T01:27:21.474Z,94.17
2017-05-25T01:28:02.336Z,94.51
2017-05-25T01:28:43.221Z,94.46
2017-05-25T01:29:24.104Z,94.51
2017-05-25T01:30:05.000Z,93.79
2017-05-25T01:30:45.875Z,94.36
2017-05-25T01:31:26.784Z,94.36
2017-05-25T01:32:07.676Z,94.27
2017-05-25T01:32:48.565Z,94.07
2017-05-25T01:33:29.484Z,94.46
2017-05-25T01:34:10.352Z,94.03
2017-05-25T01:34:51.244Z,94.17
2017-05-25T01:35:32.153Z,94.36
2017-05-25T01:36:13.064Z,94.74
2017-05-25T01:36:53.949Z,94.07
2017-05-25T01:37:34.837Z,94.27
2017-05-25T01:38:15.714Z,94.84
2017-05-25T01:38:56.597Z,94.84
2017-05-25T01:39:37.489Z,95.03
2017-05-25T01:40:18.379Z,94.27
2017-05-25T01:40:59.272Z,94.36
2017-05-25T01:41:40.187Z,94.36
2017-05-25T01:42:21.051Z,94.07
2017-05-25T01:43:01.944Z,94.46
2017-05-25T01:43:42.857Z,94.93
2017-05-25T01:44:23.737Z,94.56
2017-05-25T01:45:04.641Z,94.46
2017-05-25T01:45:45.540Z,94.93
2017-05-25T01:46:26.416Z,94.74
2017-05-25T01:47:07.298Z,94.84
2017-05-25T01:47:48.188Z,94.27
2017-05-25T01:48:29.079Z,94.56
2017-05-25T01:49:09.946Z,95.12
2017-05-25T01:49:50.812Z,94.17
2017-05-25T01:50:31.724Z,95.12
2017-05-25T01:51:12.619Z,94.56
2017-05-25T01:51:53.502Z,94.36
2017-05-25T01:52:34.405Z,94.65
2017-05-25T01:53:15.294Z,94.84
2017-05-25T01:53:56.181Z,95.03
2017-05-25T01:54:37.074Z,95.12
2017-05-25T01:55:17.970Z,95.22
2017-05-25T01:55:58.844Z,95.03
2017-05-25T01:56:39.748Z,95.51
2017-05-25T01:57:20.653Z,95.32
2017-05-25T01:58:01.537Z,95.51
2017-05-25T01:58:42.432Z,96.08
2017-05-25T01:59:23.323Z,95.22
2017-05-25T02:00:04.206Z,95.32
2017-05-25T02:00:45.108Z,95.41
2017-05-25T02:01:26.058Z,95.32
2017-05-25T02:02:06.966Z,95.41
2017-05-25T02:02:47.851Z,95.22
2017-05-25T02:03:28.745Z,95.32
2017-05-25T02:04:09.629Z,96.08
2017-05-25T02:04:50.523Z,95.03
2017-05-25T02:05:31.421Z,96.08
2017-05-25T02:06:12.314Z,96.08
2017-05-25T02:06:53.199Z,95.89
2017-05-25T02:07:34.095Z,96.17
2017-05-25T02:08:15.016Z,96.08
2017-05-25T02:08:55.920Z,96.27
2017-05-25T02:09:36.807Z,95.79
2017-05-25T02:10:17.678Z,95.7
2017-05-25T02:10:58.574Z,96.17
2017-05-25T02:11:39.488Z,96.08
2017-05-25T02:12:20.369Z,96.08
2017-05-25T02:13:01.265Z,96.37
2017-05-25T02:13:42.171Z,95.79
2017-05-25T02:14:23.055Z,95.79
2017-05-25T02:15:03.953Z,96.08
2017-05-25T02:15:44.841Z,96.17
2017-05-25T02:16:25.739Z,96.08
2017-05-25T02:17:06.645Z,95.98
2017-05-25T02:17:47.528Z,95.89
2017-05-25T02:18:28.425Z,95.41
2017-05-25T02:19:09.317Z,96.17
2017-05-25T02:19:50.204Z,96.66
2017-05-25T02:20:31.097Z,96.66
2017-05-25T02:21:12.006Z,96.37
2017-05-25T02:22:40.126Z,96.37
2017-05-25T02:23:20.993Z,96.66
2017-05-25T02:24:01.913Z,96.66
2017-05-25T02:24:42.801Z,96.61
2017-05-25T02:25:23.696Z,97.03
2017-05-25T02:26:04.579Z,96.66
2017-05-25T02:26:45.485Z,96.75
2017-05-25T02:27:26.377Z,96.56
2017-05-25T02:28:07.253Z,96.66
2017-05-25T02:28:48.142Z,96.66
2017-05-25T02:29:29.065Z,96.75
2017-05-25T02:30:09.949Z,97.46
2017-05-25T02:30:50.850Z,96.8
2017-05-25T02:31:31.731Z,97.08
2017-05-25T02:32:12.617Z,97.42
2017-05-25T02:32:53.512Z,97.37
2017-05-25T02:33:34.397Z,97.46
2017-05-25T02:34:15.361Z,97.75
2017-05-25T02:34:56.271Z,97.37
2017-05-25T02:35:37.115Z,97.94
2017-05-25T02:36:18.023Z,97.85
2017-05-25T02:36:58.897Z,97.56
2017-05-25T02:37:39.780Z,97.46
2017-05-25T02:38:20.668Z,97.75
2017-05-25T02:39:01.603Z,97.85
2017-05-25T02:39:42.507Z,97.75
2017-05-25T02:40:23.390Z,98.32
2017-05-25T02:41:04.303Z,98.03
2017-05-25T02:41:45.192Z,98.22
2017-05-25T02:42:26.071Z,98.8
2017-05-25T02:43:06.957Z,98.32
2017-05-25T02:43:47.859Z,98.32
2017-05-25T02:44:28.716Z,98.61
2017-05-25T02:45:09.603Z,98.32
2017-05-25T02:45:50.489Z,98.51
2017-05-25T02:46:31.374Z,98.32
2017-05-25T02:47:12.282Z,98.32
2017-05-25T02:47:53.166Z,98.42
2017-05-25T02:48:34.060Z,98.03
2017-05-25T02:49:14.954Z,98.42
2017-05-25T02:49:55.845Z,98.13
2017-05-25T02:50:36.736Z,98.32
2017-05-25T02:51:17.634Z,98.51
2017-05-25T02:51:58.522Z,98.8
2017-05-25T02:52:39.454Z,98.7
2017-05-25T02:53:20.362Z,99.37
2017-05-25T02:54:01.231Z,98.9
2017-05-25T02:54:42.123Z,98.7
2017-05-25T02:55:23.020Z,98.42
2017-05-25T02:56:03.923Z,98.7
2017-05-25T02:56:44.801Z,98.51
2017-05-25T02:57:25.692Z,98.22
2017-05-25T02:58:06.589Z,98.61
2017-05-25T02:58:47.603Z,98.7
2017-05-25T02:59:28.490Z,97.75
2017-05-25T03:00:09.383Z,98.22
2017-05-25T03:00:50.281Z,98.8
2017-05-25T03:01:31.180Z,98.7
2017-05-25T03:02:12.077Z,98.9
2017-05-25T03:02:52.964Z,98.7
2017-05-25T03:03:33.862Z,98.22
2017-05-25T03:04:14.757Z,98.9
2017-05-25T03:04:55.631Z,98.7
2017-05-25T03:05:36.516Z,99.46
2017-05-25T03:06:17.407Z,99.56
2017-05-25T03:06:58.869Z,99.85
2017-05-25T03:07:39.778Z,99.08
2017-05-25T03:08:20.664Z,99.75
2017-05-25T03:09:01.570Z,99.46
2017-05-25T03:09:42.444Z,99.99
2017-05-25T03:10:23.385Z,99.99
2017-05-25T03:11:04.239Z,99.66
2017-05-25T03:11:45.118Z,99.56
2017-05-25T03:12:26.028Z,99.56
2017-05-25T03:13:06.971Z,99.75
2017-05-25T03:13:47.865Z,99.75
2017-05-25T03:14:28.739Z,99.46
2017-05-25T03:15:09.616Z,99.85
2017-05-25T03:15:50.503Z,99.99
2017-05-25T03:16:31.401Z,99.75
2017-05-25T03:17:12.289Z,99.75
2017-05-25T03:17:53.166Z,99.66
2017-05-25T03:18:34.074Z,99.99
2017-05-25T03:19:14.950Z,99.99
2017-05-25T03:19:55.892Z,99.99
2017-05-25T03:20:36.714Z,99.99
2017-05-25T03:21:17.603Z,99.99
2017-05-25T03:21:58.528Z,99.99
2017-05-25T03:22:39.442Z,99.99
2017-05-25T03:23:20.319Z,99.99
2017-05-25T03:24:01.209Z,99.99
2017-05-25T03:24:42.105Z,99.99
2017-05-25T03:25:22.996Z,99.99
2017-05-25T03:26:03.884Z,99.99
2017-05-25T03:26:44.785Z,99.99
2017-05-25T03:27:25.658Z,99.99
2017-05-25T03:28:06.537Z,99.99
2017-05-25T03:28:47.442Z,99.99
2017-05-25T03:29:28.330Z,99.99
2017-05-25T03:30:09.219Z,99.99
2017-05-25T03:30:50.097Z,99.99
2017-05-25T03:31:30.991Z,99.99
2017-05-25T03:32:11.878Z,99.99
2017-05-25T03:32:52.749Z,99.99
2017-05-25T03:33:33.647Z,99.99
2017-05-25T03:34:14.568Z,99.99
2017-05-25T03:34:55.417Z,99.99
2017-05-25T03:35:36.301Z,99.99
2017-05-25T03:36:17.199Z,99.99
2017-05-25T03:36:58.089Z,99.99
2017-05-25T03:37:38.974Z,99.99
2017-05-25T03:38:19.865Z,99.99
2017-05-25T03:39:00.766Z,99.99
2017-05-25T03:39:41.705Z,99.99
2017-05-25T03:40:22.597Z,99.99
2017-05-25T03:41:03.493Z,99.99
2017-05-25T03:41:44.684Z,99.99
2017-05-25T03:42:25.567Z,99.99
2017-05-25T03:43:06.433Z,99.99
2017-05-25T03:43:47.338Z,99.99
2017-05-25T03:44:28.223Z,99.99
2017-05-25T03:45:09.100Z,99.99
2017-05-25T03:45:49.983Z,99.99
2017-05-25T03:46:30.926Z,99.99
2017-05-25T03:47:11.804Z,99.99
2017-05-25T03:47:52.690Z,99.99
2017-05-25T03:48:33.577Z,99.99
2017-05-25T03:49:14.451Z,99.99
2017-05-25T03:49:55.363Z,99.99
2017-05-25T03:50:36.264Z,99.99
2017-05-25T03:51:17.244Z,99.99
2017-05-25T03:51:58.178Z,99.99
2017-05-25T03:52:39.045Z,99.99
2017-05-25T03:53:19.937Z,99.99
2017-05-25T03:54:00.826Z,99.99
2017-05-25T03:54:41.704Z,99.99
2017-05-25T03:55:22.584Z,99.99
2017-05-25T03:56:03.480Z,99.99
2017-05-25T03:56:44.359Z,99.99
2017-05-25T03:57:25.264Z,99.99
2017-05-25T03:58:06.156Z,99.99
2017-05-25T03:58:47.050Z,99.99
2017-05-25T03:59:27.928Z,99.99
2017-05-25T04:00:08.820Z,99.99
2017-05-25T04:00:49.717Z,99.99
2017-05-25T04:01:30.602Z,99.99
2017-05-25T04:02:11.496Z,99.99
2017-05-25T04:02:52.400Z,99.99
2017-05-25T04:03:33.329Z,99.99
2017-05-25T04:04:14.220Z,99.99
2017-05-25T04:04:55.104Z,99.99
2017-05-25T04:05:35.988Z,99.99
2017-05-25T04:06:16.871Z,99.99
2017-05-25T04:06:57.762Z,99.99
2017-05-25T04:07:38.640Z,99.99
2017-05-25T04:08:19.520Z,99.99
2017-05-25T04:09:00.433Z,99.99
2017-05-25T04:09:41.310Z,99.99
2017-05-25T04:10:22.202Z,99.99
2017-05-25T04:11:03.114Z,99.99
2017-05-25T04:11:43.977Z,99.85
2017-05-25T04:12:24.874Z,99.85
2017-05-25T04:13:05.798Z,99.37
2017-05-25T04:13:46.661Z,99.99
2017-05-25T04:14:27.547Z,99.99
2017-05-25T04:15:08.485Z,99.99
2017-05-25T04:15:49.385Z,99.99
2017-05-25T04:16:30.260Z,99.99
2017-05-25T04:17:11.181Z,99.99
2017-05-25T04:17:52.077Z,99.99
2017-05-25T04:18:32.950Z,99.99
2017-05-25T04:19:13.837Z,99.99
2017-05-25T04:19:54.715Z,99.99
2017-05-25T04:20:35.600Z,99.99
2017-05-25T04:21:16.508Z,99.99
2017-05-25T04:21:57.366Z,99.99
2017-05-25T04:22:38.254Z,99.99
2017-05-25T04:23:19.162Z,99.99
2017-05-25T04:24:00.028Z,99.99
2017-05-25T04:24:40.910Z,99.99
2017-05-25T04:25:21.801Z,99.99
2017-05-25T04:26:02.699Z,99.99
2017-05-25T04:26:43.579Z,99.99
2017-05-25T04:27:24.474Z,99.99
2017-05-25T04:28:05.428Z,99.99
2017-05-25T04:28:46.317Z,99.99
2017-05-25T04:29:27.286Z,99.99
2017-05-25T04:30:08.171Z,99.99
2017-05-25T04:30:49.113Z,99.99
2017-05-25T04:31:30.022Z,99.99
2017-05-25T04:32:10.935Z,99.99
2017-05-25T04:32:51.817Z,99.99
2017-05-25T04:33:32.703Z,99.99
2017-05-25T04:34:13.600Z,99.99
2017-05-25T04:34:54.533Z,99.99
2017-05-25T04:35:35.438Z,99.99
2017-05-25T04:36:16.283Z,99.99
2017-05-25T04:36:57.165Z,99.99
2017-05-25T04:37:38.118Z,99.99
2017-05-25T04:38:19.071Z,99.99
2017-05-25T04:38:59.942Z,99.99
2017-05-25T04:39:40.825Z,99.99
2017-05-25T04:40:21.721Z,99.99
2017-05-25T04:41:02.606Z,99.99
2017-05-25T04:41:43.492Z,99.99
2017-05-25T04:42:24.398Z,99.99
2017-05-25T04:43:05.286Z,99.99
2017-05-25T04:43:46.161Z,99.99
2017-05-25T04:44:27.059Z,99.99
2017-05-25T04:45:07.942Z,99.99
2017-05-25T04:45:48.848Z,99.99
2017-05-25T04:46:29.729Z,99.99
2017-05-25T04:47:10.620Z,99.99
2017-05-25T04:47:51.518Z,99.99
2017-05-25T04:48:32.410Z,99.99
2017-05-25T04:49:13.296Z,99.99
2017-05-25T04:50:46.594Z,99.99
2017-05-25T04:51:27.469Z,99.99
2017-05-25T04:52:08.357Z,99.99
2017-05-25T04:52:49.247Z,99.99
2017-05-25T04:53:30.128Z,99.99
2017-05-25T04:54:11.017Z,99.99
2017-05-25T04:54:51.903Z,99.99
2017-05-25T04:55:32.799Z,99.99
2017-05-25T04:56:13.682Z,99.99
2017-05-25T04:56:54.571Z,99.99
2017-05-25T04:57:35.453Z,99.99
2017-05-25T04:58:16.352Z,99.99
2017-05-25T04:58:57.247Z,99.99
2017-05-25T04:59:38.136Z,99.99
2017-05-25T05:00:19.029Z,99.99
2017-05-25T05:00:59.916Z,99.99
2017-05-25T05:01:40.814Z,99.99
2017-05-25T05:02:21.722Z,99.99
2017-05-25T05:03:02.606Z,99.99
2017-05-25T05:03:43.556Z,99.99
2017-05-25T05:04:24.447Z,99.99
2017-05-25T05:05:05.334Z,99.99
2017-05-25T05:05:46.211Z,99.99
2017-05-25T05:06:27.117Z,99.99
2017-05-25T05:07:08.005Z,99.99
2017-05-25T05:07:48.906Z,99.99
2017-05-25T05:08:29.797Z,99.99
2017-05-25T05:09:10.683Z,99.99
2017-05-25T05:09:51.581Z,99.99
2017-05-25T05:10:32.476Z,99.99
2017-05-25T05:11:13.365Z,99.99
2017-05-25T05:11:54.248Z,99.99
2017-05-25T05:12:35.201Z,99.99
2017-05-25T05:13:16.061Z,99.99
2017-05-25T05:13:56.933Z,99.99
2017-05-25T05:14:37.833Z,99.99
2017-05-25T05:15:18.719Z,99.99
2017-05-25T05:15:59.615Z,99.99
2017-05-25T05:16:40.504Z,99.99
2017-05-25T05:17:21.392Z,99.99
2017-05-25T05:18:02.282Z,99.99
2017-05-25T05:18:43.173Z,99.99
2017-05-25T05:19:24.066Z,99.99
2017-05-25T05:20:04.956Z,99.99
2017-05-25T05:20:45.848Z,99.99
2017-05-25T05:21:26.731Z,99.99
2017-05-25T05:22:07.611Z,99.99
2017-05-25T05:22:48.494Z,99.99
2017-05-25T05:23:29.385Z,99.99
2017-05-25T05:24:10.268Z,99.76
2017-05-25T05:24:51.147Z,99.76
2017-05-25T05:25:32.036Z,98.71
2017-05-25T05:26:12.925Z,99.76
2017-05-25T05:26:53.814Z,98.61
2017-05-25T05:27:34.705Z,99.85
2017-05-25T05:28:15.664Z,98.8
2017-05-25T05:28:56.559Z,99.47
2017-05-25T05:29:37.464Z,99.37
2017-05-25T05:30:18.353Z,98.9
2017-05-25T05:30:59.247Z,98.52
2017-05-25T05:31:40.135Z,98.52
2017-05-25T05:32:21.018Z,98.99
2017-05-25T05:33:01.902Z,98.52
2017-05-25T05:33:42.798Z,98.61
2017-05-25T05:34:23.708Z,97.94
2017-05-25T05:35:04.589Z,97.99
2017-05-25T05:35:45.470Z,97.23
2017-05-25T05:36:26.347Z,96.46
2017-05-25T05:37:07.236Z,97.18
2017-05-25T05:37:48.140Z,97.52
2017-05-25T05:38:29.040Z,96.75
2017-05-25T05:39:09.921Z,96.51
2017-05-25T05:39:50.924Z,97.42
2017-05-25T05:40:31.814Z,97.66
2017-05-25T05:41:12.703Z,97.85
2017-05-25T05:41:53.586Z,97.66
2017-05-25T05:42:34.477Z,98.13
2017-05-25T05:43:15.364Z,97.85
2017-05-25T05:43:56.260Z,97.66
2017-05-25T05:44:37.152Z,97.13
2017-05-25T05:45:18.036Z,97.23
2017-05-25T05:45:58.925Z,96.84
2017-05-25T05:46:40.035Z,97.56
2017-05-25T05:47:21.491Z,97.27
2017-05-25T05:48:02.371Z,97.37
2017-05-25T05:48:43.263Z,96.61
2017-05-25T05:49:24.161Z,96.66
2017-05-25T05:50:05.060Z,96.37
2017-05-25T05:50:45.949Z,95.98
2017-05-25T05:51:26.836Z,96.37
2017-05-25T05:52:07.728Z,95.7
2017-05-25T05:52:48.615Z,95.79
2017-05-25T05:53:29.522Z,95.22
2017-05-25T05:54:10.403Z,95.12
2017-05-25T05:54:51.302Z,95.22
2017-05-25T05:55:32.208Z,95.79
2017-05-25T05:56:13.097Z,95.51
2017-05-25T05:56:53.984Z,95.51
2017-05-25T05:57:34.872Z,95.22
2017-05-25T05:58:15.777Z,94.84
2017-05-25T05:58:56.661Z,93.45
2017-05-25T05:59:37.550Z,92.4
2017-05-25T06:00:18.431Z,91.74
2017-05-25T06:00:59.315Z,91.25
2017-05-25T06:01:40.211Z,91.93
2017-05-25T06:02:21.095Z,93.07
2017-05-25T06:03:01.993Z,92.79
2017-05-25T06:03:42.885Z,92.97
2017-05-25T06:04:23.774Z,92.79
2017-05-25T06:05:04.663Z,92.88
2017-05-25T06:05:45.557Z,92.11
2017-05-25T06:06:26.438Z,92.79
2017-05-25T06:07:07.325Z,93.16
2017-05-25T06:07:48.234Z,92.69
2017-05-25T06:08:29.113Z,92.11
2017-05-25T06:09:10.003Z,92.21
2017-05-25T06:09:50.883Z,92.3
2017-05-25T06:10:31.777Z,91.93
2017-05-25T06:11:12.668Z,91.83
2017-05-25T06:11:53.567Z,91.25
2017-05-25T06:12:34.471Z,90.78
2017-05-25T06:13:15.352Z,90.92
2017-05-25T06:13:56.242Z,89.87
2017-05-25T06:14:37.130Z,89.39
2017-05-25T06:15:18.021Z,88.19
2017-05-25T06:15:58.969Z,86.85
2017-05-25T06:16:39.863Z,84.5
2017-05-25T06:17:20.757Z,83.64
2017-05-25T06:18:01.652Z,83.45
2017-05-25T06:18:42.535Z,83.78
2017-05-25T06:19:23.439Z,81.43
2017-05-25T06:20:04.313Z,77.82
2017-05-25T06:20:45.201Z,75.7
2017-05-25T06:21:26.088Z,72.81
2017-05-25T06:22:06.984Z,74.47
2017-05-25T06:22:47.861Z,74.16
2017-05-25T06:23:28.762Z,71.22
2017-05-25T06:24:09.657Z,69.81
2017-05-25T06:24:50.549Z,68.28
2017-05-25T06:25:31.438Z,68.5
2017-05-25T06:26:12.347Z,70.51
2017-05-25T06:26:53.263Z,70.9
2017-05-25T06:27:34.153Z,71.82
2017-05-25T06:28:15.047Z,71.63
2017-05-25T06:28:55.949Z,72.39
2017-05-25T06:29:36.848Z,73.8
2017-05-25T06:30:17.743Z,76.06
2017-05-25T06:30:58.637Z,76.54
2017-05-25T06:31:39.524Z,77.11
2017-05-25T06:32:20.421Z,76.54
2017-05-25T06:33:01.443Z,77.11
2017-05-25T06:33:42.341Z,77.88
2017-05-25T06:34:23.243Z,77.11
2017-05-25T06:35:04.132Z,76.48
2017-05-25T06:35:45.044Z,77.02
2017-05-25T06:36:25.942Z,75.95
2017-05-25T06:37:06.841Z,75.04
2017-05-25T06:37:47.749Z,75.33
2017-05-25T06:38:28.639Z,76.44
2017-05-25T06:39:09.531Z,75.33
2017-05-25T06:39:50.434Z,75.9
2017-05-25T06:40:31.331Z,74.69
2017-05-25T06:41:12.244Z,72.18
2017-05-25T06:41:53.121Z,70.42
2017-05-25T06:42:34.017Z,71.25
2017-05-25T06:43:14.919Z,73.74
2017-05-25T06:43:55.837Z,74.47
2017-05-25T06:44:36.742Z,71.82
2017-05-25T06:45:17.651Z,71.19
2017-05-25T06:45:58.550Z,72.11
2017-05-25T06:46:39.450Z,70.13
2017-05-25T06:47:20.351Z,69.26
2017-05-25T06:48:01.238Z,69.01
2017-05-25T06:48:42.131Z,68.08
2017-05-25T06:49:23.034Z,65.78
2017-05-25T06:50:03.923Z,62.06
2017-05-25T06:50:44.841Z,59.4
2017-05-25T06:51:25.734Z,57.79
2017-05-25T06:52:06.628Z,56.76
2017-05-25T06:52:47.535Z,55.89
2017-05-25T06:53:28.434Z,54.83
2017-05-25T06:54:09.336Z,54.74
2017-05-25T06:54:50.235Z,54.93
2017-05-25T06:55:31.143Z,58.35
2017-05-25T06:56:12.074Z,61.68
2017-05-25T06:56:53.000Z,63.51
2017-05-25T06:57:33.892Z,66.1
2017-05-25T06:58:14.810Z,66.42
2017-05-25T06:58:55.677Z,66.77
2017-05-25T06:59:36.596Z,67.54
2017-05-25T07:00:17.533Z,67.38
2017-05-25T07:00:58.447Z,66.23
2017-05-25T07:01:39.351Z,65.2
2017-05-25T07:02:20.252Z,63.41
2017-05-25T07:03:01.142Z,63.86
2017-05-25T07:03:42.059Z,65.17
2017-05-25T07:04:22.956Z,66.1
2017-05-25T07:05:03.850Z,65.88
2017-05-25T07:05:44.756Z,63.67
2017-05-25T07:07:38.393Z,64.02
2017-05-25T07:08:19.274Z,63.35
2017-05-25T07:09:00.211Z,62.29
2017-05-25T07:09:41.228Z,59.66
2017-05-25T07:10:22.142Z,56.67
2017-05-25T07:11:03.037Z,57.35
2017-05-25T07:11:43.987Z,57.8
2017-05-25T07:12:24.950Z,56.67
2017-05-25T07:13:05.843Z,54.71
2017-05-25T07:13:46.767Z,53
2017-05-25T07:14:27.658Z,52.3
2017-05-25T07:15:08.566Z,53.4
2017-05-25T07:15:49.467Z,57.2
2017-05-25T07:16:30.418Z,59.47
2017-05-25T07:17:11.333Z,59.86
2017-05-25T07:17:52.231Z,58.64
2017-05-25T07:18:33.157Z,57.8
2017-05-25T07:19:14.047Z,57.13
2017-05-25T07:19:54.952Z,56.87
2017-05-25T07:20:35.855Z,54.9
2017-05-25T07:21:16.757Z,52.91
2017-05-25T07:21:57.670Z,52.69
2017-05-25T07:22:38.566Z,53.09
2017-05-25T07:23:19.477Z,52.52
2017-05-25T07:24:00.379Z,52.25
2017-05-25T07:24:41.300Z,51.12
2017-05-25T07:25:22.176Z,51.15
2017-05-25T07:26:03.082Z,49.51
2017-05-25T07:26:43.986Z,48.66
2017-05-25T07:27:24.889Z,47.43
2017-05-25T07:28:05.789Z,47.14
2017-05-25T07:28:46.699Z,47.94
2017-05-25T07:29:27.624Z,49.65
2017-05-25T07:30:08.517Z,51.48
2017-05-25T07:30:49.423Z,51.39
2017-05-25T07:31:30.320Z,51.92
2017-05-25T07:32:11.369Z,52.52
2017-05-25T07:32:52.320Z,52.69
2017-05-25T07:33:33.220Z,53.29
2017-05-25T07:34:14.124Z,52.09
2017-05-25T07:34:55.039Z,50.26
2017-05-25T07:35:35.959Z,49.99
2017-05-25T07:36:16.851Z,51.79
2017-05-25T07:36:57.761Z,55.43
2017-05-25T07:37:38.695Z,57.1
2017-05-25T07:38:19.601Z,58.89
2017-05-25T07:39:00.550Z,58.92
2017-05-25T07:39:41.512Z,58.8
2017-05-25T07:40:22.370Z,61.14
2017-05-25T07:41:03.273Z,61.81
2017-05-25T07:41:44.174Z,61.43
2017-05-25T07:42:25.088Z,60.69
2017-05-25T07:44:24.754Z,57.48
2017-05-25T07:45:05.721Z,56.16
2017-05-25T07:45:46.608Z,57.2
2017-05-25T07:46:27.508Z,59.66
2017-05-25T07:47:08.411Z,59.86
2017-05-25T07:47:49.400Z,59.38
2017-05-25T07:48:30.222Z,58.83
2017-05-25T07:49:11.142Z,57.25
2017-05-25T07:49:52.028Z,55.09
2017-05-25T07:50:32.955Z,55.88
2017-05-25T07:51:13.874Z,58.32
2017-05-25T07:51:54.792Z,59.47
2017-05-25T07:52:35.690Z,59.38
2017-05-25T07:53:16.586Z,58.61
2017-05-25T07:53:57.523Z,58.61
2017-05-25T07:54:38.440Z,58.8
2017-05-25T07:55:19.365Z,58.61
2017-05-25T07:56:00.311Z,58.57
2017-05-25T07:56:41.216Z,58.7
2017-05-25T07:57:22.098Z,60.34
2017-05-25T07:58:03.022Z,59.76
2017-05-25T07:58:43.911Z,60.02
2017-05-25T07:59:24.815Z,60.88
2017-05-25T08:00:58.179Z,60.02
2017-05-25T08:01:39.112Z,59.57
2017-05-25T08:02:20.091Z,58.35
2017-05-25T08:03:01.005Z,56.2
2017-05-25T08:03:41.891Z,55.26
2017-05-25T08:04:22.797Z,53.81
2017-05-25T08:05:03.720Z,53.33
2017-05-25T08:05:44.652Z,54.1
2017-05-25T08:07:12.822Z,54.75
2017-05-25T08:07:53.702Z,54.75
2017-05-25T08:08:34.611Z,55.46
2017-05-25T08:09:15.517Z,56.33
2017-05-25T08:09:56.424Z,56.14
2017-05-25T08:10:37.313Z,55.94
2017-05-25T08:11:18.270Z,56.14
2017-05-25T08:13:17.071Z,59.34
2017-05-25T08:13:57.960Z,60.75
2017-05-25T08:14:38.872Z,62.1
2017-05-25T08:15:19.777Z,62.65
2017-05-25T08:16:00.690Z,63.51
2017-05-25T08:16:41.582Z,62.58
2017-05-25T08:17:22.499Z,60.72
2017-05-25T08:18:03.408Z,58.64
2017-05-25T08:18:44.366Z,56
2017-05-25T08:19:25.221Z,54.78
2017-05-25T08:20:06.143Z,53.45
2017-05-25T08:20:47.026Z,51.94
2017-05-25T08:21:27.929Z,50.37
2017-05-25T08:22:08.820Z,51.7
2017-05-25T08:22:49.710Z,53.38
2017-05-25T08:23:30.618Z,54.72
2017-05-25T08:24:11.511Z,54.91
2017-05-25T08:24:52.431Z,55.94
2017-05-25T08:25:33.327Z,55.71
2017-05-25T08:26:14.247Z,52.97
2017-05-25T08:26:55.146Z,53.4
2017-05-25T08:27:36.032Z,55.04
2017-05-25T08:28:16.943Z,55.94
2017-05-25T08:28:57.846Z,57.2
2017-05-25T08:29:38.747Z,58.42
2017-05-25T08:30:19.666Z,59.19
2017-05-25T08:31:00.567Z,59.09
2017-05-25T08:31:41.459Z,60.31
2017-05-25T08:32:22.396Z,60.31
2017-05-25T08:34:00.879Z,58.61
2017-05-25T08:34:41.775Z,60.05
2017-05-25T08:35:22.652Z,60.88
2017-05-25T08:36:03.543Z,60.88
2017-05-25T08:36:44.434Z,59.92
2017-05-25T08:37:25.324Z,58.89
2017-05-25T08:38:06.215Z,59.16
2017-05-25T08:38:47.135Z,57.51
2017-05-25T08:39:28.002Z,55.2
2017-05-25T08:40:08.896Z,53.72
2017-05-25T08:40:49.815Z,53.88
2017-05-25T08:41:30.706Z,54.82
2017-05-25T08:42:11.610Z,56.04
2017-05-25T08:42:52.511Z,57.1
2017-05-25T08:43:33.416Z,56.52
2017-05-25T08:44:14.318Z,55.71
2017-05-25T08:44:55.208Z,53.65
2017-05-25T08:45:36.129Z,52.66
2017-05-25T08:46:17.062Z,53.91
2017-05-25T08:46:57.951Z,51.58
2017-05-25T08:47:38.848Z,50.54
2017-05-25T08:48:19.762Z,48.28
2017-05-25T08:49:00.665Z,47.07
2017-05-25T08:49:41.564Z,48.3
2017-05-25T08:50:22.448Z,50.69
2017-05-25T08:51:03.342Z,48.9
2017-05-25T08:51:44.245Z,50.18
2017-05-25T08:52:25.125Z,53.31
2017-05-25T08:53:06.021Z,55.04
2017-05-25T08:53:46.917Z,52.91
2017-05-25T08:54:27.805Z,51.62
2017-05-25T08:55:08.731Z,53.31
2017-05-25T08:57:02.395Z,54.14
2017-05-25T08:57:43.282Z,55.82
2017-05-25T08:58:24.206Z,57.84
2017-05-25T08:59:05.137Z,56.84
2017-05-25T08:59:46.027Z,57.36
2017-05-25T09:00:26.930Z,57.71
2017-05-25T09:01:07.816Z,57.84
2017-05-25T09:01:48.733Z,57.55